Log in

NYSE:UAUnder Armour Institutional Ownership

$8.39
+0.39 (+4.88 %)
(As of 04/8/2020 02:45 AM ET)
Add
Compare
Today's Range
$8.19
Now: $8.39
$8.84
50-Day Range
$6.89
MA: $10.35
$15.45
52-Week Range
$6.60
Now: $8.39
$24.55
Volume4.33 million shs
Average Volume3.96 million shs
Market Capitalization$3.79 billion
P/E Ratio39.95
Dividend YieldN/A
Beta1.67

Institutional Ownership

Institutional Ownership Changes (13F Filings) for Under Armour (NYSE:UA)

Institutional Ownership Percentage: 35.80%

Institutional Buying and Selling by Quarter

Under Armour (NYSE UA) Institutional Buying and Selling

Reporting DateHedge FundShares HeldMarket Value% of PortfolioQuarterly Change in SharesOwnership in Company
4/6/2020State of Alaska Department of Revenue33,501$0.27M0.0%+4.8%0.007%
3/16/2020TFG Advisers LLC2,664$51K0.0%N/A0.001%
3/5/2020Nuveen Asset Management LLC1,338,229$25.67M0.0%+45.7%0.296%
3/3/2020Norges Bank2,110,131$40.47M0.0%N/A0.467%
2/27/2020Verus Capital Partners LLC2,458$47K0.0%N/A0.001%
2/22/2020Franklin Street Advisors Inc. NC14,271$0.27M0.0%-96.5%0.003%
2/20/2020Geode Capital Management LLC2,863,455$54.81M0.0%+4.0%0.634%
2/18/2020Alliancebernstein L.P.299,449$5.74M0.0%-1.3%0.066%
2/18/2020Janus Henderson Group PLC160,573$3.08M0.0%-63.6%0.036%
2/18/2020Standard Life Aberdeen plc75,169$1.44M0.0%-1.3%0.017%
2/18/2020Man Group plc13,744$0.26M0.0%+5.4%0.003%
2/17/2020Bares Capital Management Inc.10,318,273$197.90M5.6%-0.1%2.285%
2/17/2020Ladenburg Thalmann Financial Services Inc.62,894$1.21M0.0%-2.0%0.014%
2/14/2020Point72 Asset Management L.P.38,518$0.74M0.0%+229.2%0.009%
2/14/2020Captrust Financial Advisors11,235$0.22M0.0%+1,458.3%0.002%
2/14/2020Cubist Systematic Strategies LLC15,848$0.30M0.0%N/A0.004%
2/14/2020Caisse DE Depot ET Placement DU Quebec23,400$0.45M0.0%-20.9%0.005%
2/14/2020Blueshift Asset Management LLC36,724$0.70M0.1%+94.0%0.008%
2/14/2020Bank of America Corp DE138,648$2.66M0.0%-43.1%0.031%
2/14/2020UBS Asset Management Americas Inc.613,312$11.76M0.0%+9.1%0.136%
2/14/2020Bank of New York Mellon Corp1,212,013$23.25M0.0%-33.4%0.268%
2/14/2020ArrowMark Colorado Holdings LLC3,271,189$62.74M0.6%+6.9%0.724%
2/14/2020Echo Street Capital Management LLC553,476$10.62M0.2%-31.6%0.123%
2/14/2020Goldman Sachs Group Inc.1,434,414$27.51M0.0%+46.3%0.318%
2/14/2020Guggenheim Capital LLC23,331$0.45M0.0%+4.4%0.005%
2/14/2020Skandinaviska Enskilda Banken AB publ15,340$0.29M0.0%+11.6%0.003%
2/14/2020Public Sector Pension Investment Board33,585$0.64M0.0%-10.8%0.007%
2/14/2020Amundi Pioneer Asset Management Inc.103,468$1.99M0.0%+22.0%0.023%
2/14/2020Nissay Asset Management Corp Japan ADV18,181$0.35M0.0%-87.9%0.004%
2/13/2020Formula Growth Ltd.1,340,000$25.70M3.2%+20.5%0.297%
2/13/2020Massachusetts Financial Services Co. MA534,677$10.26M0.0%N/A0.118%
2/13/2020K2 Principal Fund L.P.103,569$1.99M0.2%N/A0.023%
2/13/2020Amalgamated Bank32,006$0.61M0.0%+5.4%0.007%
2/13/2020Northwestern Mutual Wealth Management Co.12,362$0.24M0.0%-29.1%0.003%
2/13/2020Toronto Dominion Bank127,878$2.45M0.0%+6.9%0.028%
2/13/2020Personal Capital Advisors Corp886,885$17.01M0.1%-5.7%0.196%
2/13/2020Stifel Financial Corp53,512$1.03M0.0%-22.2%0.012%
2/13/2020CIBC World Markets Inc.23,439$0.45M0.0%-28.3%0.005%
2/12/2020Trexquant Investment LP42,850$0.82M0.0%+7.8%0.009%
2/12/2020BRITISH COLUMBIA INVESTMENT MANAGEMENT Corp45,799$0.88M0.0%+3.3%0.010%
2/12/2020Credit Suisse AG818,770$15.70M0.0%+269.7%0.181%
2/12/2020Vestcor Investment Management Corp3,374$65K0.0%N/A0.001%
2/12/2020Chevy Chase Trust Holdings Inc.163,394$3.13M0.0%+2.1%0.036%
2/12/2020Raymond James & Associates67,597$1.30M0.0%-17.0%0.015%
2/12/2020ProShare Advisors LLC30,080$0.58M0.0%+30.5%0.007%
2/12/2020Raymond James Financial Services Advisors Inc.50,198$0.96M0.0%-16.1%0.011%
2/12/2020Pictet Asset Management Ltd.97,519$1.87M0.0%+68.2%0.022%
2/11/2020Great West Life Assurance Co. Can191,606$3.65M0.0%+4.8%0.042%
2/11/2020South Dakota Investment Council28,765$0.55M0.0%+21.1%0.006%
2/11/2020TD Asset Management Inc.194,212$3.73M0.0%+244.5%0.043%
2/11/2020Prudential Financial Inc.167,461$3.21M0.0%+0.5%0.037%
2/11/2020Piedmont Investment Advisors Inc.13,152$0.25M0.0%+7.8%0.003%
2/11/2020Landscape Capital Management L.L.C.131,191$2.52M0.2%-3.0%0.029%
2/11/2020Korea Investment CORP575,800$11.04M0.0%-4.4%0.128%
2/11/2020Mackay Shields LLC31,179$0.60M0.0%-13.5%0.007%
2/10/2020Pacer Advisors Inc.7,756$0.15M0.0%-61.2%0.002%
2/10/2020Bank of Montreal Can101,288$1.94M0.0%-54.1%0.022%
2/10/2020ING Groep NV13,346$0.26M0.0%N/A0.003%
2/10/2020Fjarde AP Fonden Fourth Swedish National Pension Fund68,048$1.31M0.0%+39.0%0.015%
2/10/2020Banque Cantonale Vaudoise45,924$0.88M0.1%N/A0.010%
2/10/2020Aviva PLC68,211$1.31M0.0%-1.6%0.015%
2/10/2020Great Valley Advisor Group Inc.24,998$0.48M0.1%+60.0%0.006%
2/10/2020Private Advisor Group LLC14,832$0.28M0.0%-24.5%0.003%
2/10/2020Cetera Advisors LLC15,273$0.29M0.0%N/A0.003%
2/10/2020Cetera Advisor Networks LLC12,622$0.24M0.0%-16.9%0.003%
2/8/2020Securian Asset Management Inc19,165$0.37M0.0%-3.6%0.004%
2/7/2020FMR LLC1,473,566$28.26M0.0%-2.5%0.326%
2/7/2020Tower Research Capital LLC TRC6,694$0.13M0.0%+65.4%0.001%
2/7/2020Comerica Bank35,903$0.67M0.0%-3.0%0.008%
2/7/2020Charles Schwab Investment Management Inc.1,288,166$24.71M0.0%+2.6%0.285%
2/7/2020PNC Financial Services Group Inc.19,274$0.37M0.0%-10.4%0.004%
2/6/2020Victory Capital Management Inc.2,353$45K0.0%-99.9%0.001%
2/6/2020Sei Investments Co.240,902$4.62M0.0%-4.3%0.053%
2/6/2020State of Tennessee Treasury Department46,355$0.89M0.0%-3.9%0.010%
2/6/2020Stone Ridge Asset Management LLC109,691$2.10M0.1%+1.3%0.024%
2/6/2020Pinnacle Financial Partners Inc.2,000$38K0.0%N/A0.000%
2/6/2020Robeco Institutional Asset Management B.V.24,212$0.46M0.0%-31.4%0.005%
2/6/2020State Street Corp7,930,493$152.11M0.0%-0.2%1.756%
2/6/2020Swiss National Bank618,814$11.87M0.0%-3.6%0.137%
2/5/2020Signaturefd LLC2,271$44K0.0%-22.6%0.001%
2/5/2020Oregon Public Employees Retirement Fund18,309$0.35M0.0%-5.5%0.004%
2/5/2020Rhumbline Advisers329,654$6.32M0.0%+5.8%0.073%
2/5/2020New York State Common Retirement Fund327,876$6.29M0.0%-6.2%0.073%
2/5/2020Principal Financial Group Inc.267,223$5.13M0.0%-3.1%0.059%
2/5/2020Mitsubishi UFJ Kokusai Asset Management Co. Ltd.42,696$0.82M0.0%+20.3%0.009%
2/4/2020Victory Capital Management Inc.2,343$42K0.0%-99.9%0.001%
2/4/2020XML Financial LLC15,347$0.29M0.1%N/A0.003%
2/4/2020Advisory Services Network LLC2,361$45K0.0%-81.5%0.001%
2/4/2020Cambridge Investment Research Advisors Inc.50,387$0.97M0.0%-7.4%0.011%
2/4/2020DekaBank Deutsche Girozentrale20,384$0.39M0.0%N/A0.005%
2/4/2020SkyOak Wealt LLC24,800$0.48M0.1%N/A0.005%
2/3/2020Texas Permanent School Fund34,430$0.66M0.0%-4.9%0.008%
2/3/2020Cadence Capital Management LLC55,795$1.07M0.1%-2.0%0.012%
2/3/2020TB Alternative Assets Ltd.103,600$1.99M0.3%N/A0.023%
1/31/2020FUKOKU MUTUAL LIFE INSURANCE Co20,000$0.38M0.0%N/A0.004%
1/31/2020Financial Counselors Inc.12,220$0.23M0.0%-12.5%0.003%
1/31/2020Daiwa Securities Group Inc.37,305$0.72M0.0%-2.6%0.008%
1/31/2020Kornitzer Capital Management Inc. KS57,065$1.10M0.0%-51.2%0.013%
1/31/2020State of New Jersey Common Pension Fund D304,432$5.84M0.0%-3.3%0.067%
1/31/2020Sumitomo Mitsui Trust Holdings Inc.672,436$12.90M0.0%-0.4%0.149%
(Data available from 1/1/2016 forward)
This page was last updated on 4/8/2020 by MarketBeat.com Staff

Enter your email address below to receive a concise daily summary of analysts' upgrades, downgrades and new coverage with MarketBeat.com's FREE daily email newsletter.

Yahoo Gemini Pixel